sensor_id;sensor_type;location;lat;lon;timestamp;P1;durP1;ratioP1;P2;durP2;ratioP2
42096;SDS011;27754;45.414;11.084;2022-08-19T00:01:33;6.60;;;3.47;;
42096;SDS011;27754;45.414;11.084;2022-08-19T00:04:04;14.75;;;5.78;;
42096;SDS011;27754;45.414;11.084;2022-08-19T00:06:33;7.85;;;5.53;;
42096;SDS011;27754;45.414;11.084;2022-08-19T00:09:02;10.07;;;5.60;;
42096;SDS011;27754;45.414;11.084;2022-08-19T00:11:30;9.82;;;5.35;;
42096;SDS011;27754;45.414;11.084;2022-08-19T00:13:58;8.85;;;4.80;;
42096;SDS011;27754;45.414;11.084;2022-08-19T00:16:25;11.23;;;5.13;;
42096;SDS011;27754;45.414;11.084;2022-08-19T00:18:53;10.90;;;4.65;;
42096;SDS011;27754;45.414;11.084;2022-08-19T00:21:22;7.80;;;4.25;;
42096;SDS011;27754;45.414;11.084;2022-08-19T00:23:50;9.13;;;3.60;;
42096;SDS011;27754;45.414;11.084;2022-08-19T00:26:18;4.70;;;2.70;;
42096;SDS011;27754;45.414;11.084;2022-08-19T00:28:45;5.95;;;2.22;;
42096;SDS011;27754;45.414;11.084;2022-08-19T00:31:13;8.25;;;2.10;;
42096;SDS011;27754;45.414;11.084;2022-08-19T00:33:40;7.20;;;2.42;;
42096;SDS011;27754;45.414;11.084;2022-08-19T00:36:07;8.00;;;2.45;;
42096;SDS011;27754;45.414;11.084;2022-08-19T00:38:36;9.70;;;3.30;;
42096;SDS011;27754;45.414;11.084;2022-08-19T00:41:05;11.90;;;2.90;;
42096;SDS011;27754;45.414;11.084;2022-08-19T00:43:32;8.13;;;3.10;;
42096;SDS011;27754;45.414;11.084;2022-08-19T00:45:59;7.93;;;2.88;;
42096;SDS011;27754;45.414;11.084;2022-08-19T00:48:31;9.63;;;2.70;;
42096;SDS011;27754;45.414;11.084;2022-08-19T00:51:00;5.63;;;2.20;;
42096;SDS011;27754;45.414;11.084;2022-08-19T00:53:28;12.13;;;2.88;;
42096;SDS011;27754;45.414;11.084;2022-08-19T00:55:58;9.15;;;2.70;;
42096;SDS011;27754;45.414;11.084;2022-08-19T00:58:30;5.47;;;2.47;;
42096;SDS011;27754;45.414;11.084;2022-08-19T01:01:00;11.85;;;2.95;;
42096;SDS011;27754;45.414;11.084;2022-08-19T01:03:28;8.65;;;2.95;;
42096;SDS011;27754;45.414;11.084;2022-08-19T01:06:16;11.10;;;3.13;;
42096;SDS011;27754;45.414;11.084;2022-08-19T01:08:46;7.45;;;3.22;;
42096;SDS011;27754;45.414;11.084;2022-08-19T01:11:15;14.88;;;4.00;;
42096;SDS011;27754;45.414;11.084;2022-08-19T01:13:43;9.27;;;3.38;;
42096;SDS011;27754;45.414;11.084;2022-08-19T01:16:16;8.32;;;3.13;;
42096;SDS011;27754;45.414;11.084;2022-08-19T01:18:45;12.75;;;3.33;;
42096;SDS011;27754;45.414;11.084;2022-08-19T01:21:35;12.18;;;3.08;;
42096;SDS011;27754;45.414;11.084;2022-08-19T01:24:13;9.38;;;2.83;;
42096;SDS011;27754;45.414;11.084;2022-08-19T01:26:42;12.50;;;3.53;;
42096;SDS011;27754;45.414;11.084;2022-08-19T01:29:12;11.25;;;3.67;;
42096;SDS011;27754;45.414;11.084;2022-08-19T01:31:40;8.57;;;3.40;;
42096;SDS011;27754;45.414;11.084;2022-08-19T01:34:07;12.05;;;4.00;;
42096;SDS011;27754;45.414;11.084;2022-08-19T01:36:44;7.55;;;3.97;;
42096;SDS011;27754;45.414;11.084;2022-08-19T01:39:17;11.88;;;4.82;;
42096;SDS011;27754;45.414;11.084;2022-08-19T01:41:49;12.75;;;4.13;;
42096;SDS011;27754;45.414;11.084;2022-08-19T01:44:19;11.20;;;3.85;;
42096;SDS011;27754;45.414;11.084;2022-08-19T01:46:50;9.98;;;3.88;;
42096;SDS011;27754;45.414;11.084;2022-08-19T01:49:18;10.40;;;3.58;;
42096;SDS011;27754;45.414;11.084;2022-08-19T01:51:46;10.50;;;3.65;;
42096;SDS011;27754;45.414;11.084;2022-08-19T01:54:15;11.40;;;4.35;;
42096;SDS011;27754;45.414;11.084;2022-08-19T01:56:53;7.07;;;3.33;;
42096;SDS011;27754;45.414;11.084;2022-08-19T01:59:25;8.95;;;3.90;;
42096;SDS011;27754;45.414;11.084;2022-08-19T02:01:53;12.48;;;4.55;;
42096;SDS011;27754;45.414;11.084;2022-08-19T02:04:20;12.25;;;4.00;;
42096;SDS011;27754;45.414;11.084;2022-08-19T02:06:47;8.43;;;3.85;;
42096;SDS011;27754;45.414;11.084;2022-08-19T02:09:14;10.75;;;4.30;;
42096;SDS011;27754;45.414;11.084;2022-08-19T02:11:42;10.65;;;4.28;;
42096;SDS011;27754;45.414;11.084;2022-08-19T02:14:09;9.65;;;4.25;;
42096;SDS011;27754;45.414;11.084;2022-08-19T02:16:36;11.07;;;3.75;;
42096;SDS011;27754;45.414;11.084;2022-08-19T02:19:04;10.77;;;4.43;;
42096;SDS011;27754;45.414;11.084;2022-08-19T02:21:32;12.57;;;4.53;;
42096;SDS011;27754;45.414;11.084;2022-08-19T02:23:59;10.10;;;3.50;;
42096;SDS011;27754;45.414;11.084;2022-08-19T02:26:27;10.63;;;4.50;;
42096;SDS011;27754;45.414;11.084;2022-08-19T02:28:54;10.18;;;4.50;;
42096;SDS011;27754;45.414;11.084;2022-08-19T02:31:22;7.28;;;4.15;;
42096;SDS011;27754;45.414;11.084;2022-08-19T02:33:51;11.57;;;4.50;;
42096;SDS011;27754;45.414;11.084;2022-08-19T02:36:22;12.95;;;4.68;;
42096;SDS011;27754;45.414;11.084;2022-08-19T02:38:50;9.98;;;4.55;;
42096;SDS011;27754;45.414;11.084;2022-08-19T02:41:25;13.80;;;5.38;;
42096;SDS011;27754;45.414;11.084;2022-08-19T02:43:57;12.82;;;4.50;;
42096;SDS011;27754;45.414;11.084;2022-08-19T02:46:46;10.20;;;4.63;;
42096;SDS011;27754;45.414;11.084;2022-08-19T02:49:18;12.70;;;3.83;;
42096;SDS011;27754;45.414;11.084;2022-08-19T02:51:46;10.43;;;4.22;;
42096;SDS011;27754;45.414;11.084;2022-08-19T02:54:13;12.07;;;4.82;;
42096;SDS011;27754;45.414;11.084;2022-08-19T02:56:41;7.75;;;3.78;;
42096;SDS011;27754;45.414;11.084;2022-08-19T02:59:09;8.98;;;3.63;;
42096;SDS011;27754;45.414;11.084;2022-08-19T03:01:39;10.48;;;3.58;;
42096;SDS011;27754;45.414;11.084;2022-08-19T03:04:09;11.23;;;3.58;;
42096;SDS011;27754;45.414;11.084;2022-08-19T03:06:39;8.70;;;3.30;;
42096;SDS011;27754;45.414;11.084;2022-08-19T03:09:08;6.03;;;3.40;;
42096;SDS011;27754;45.414;11.084;2022-08-19T03:11:36;9.88;;;3.45;;
42096;SDS011;27754;45.414;11.084;2022-08-19T03:14:04;9.38;;;3.63;;
42096;SDS011;27754;45.414;11.084;2022-08-19T03:16:35;8.98;;;3.50;;
42096;SDS011;27754;45.414;11.084;2022-08-19T03:19:11;11.55;;;3.63;;
42096;SDS011;27754;45.414;11.084;2022-08-19T03:21:38;9.80;;;3.65;;
42096;SDS011;27754;45.414;11.084;2022-08-19T03:24:06;9.20;;;3.10;;
42096;SDS011;27754;45.414;11.084;2022-08-19T03:26:37;9.32;;;3.65;;
42096;SDS011;27754;45.414;11.084;2022-08-19T03:29:06;8.90;;;3.20;;
42096;SDS011;27754;45.414;11.084;2022-08-19T03:31:37;9.70;;;3.42;;
42096;SDS011;27754;45.414;11.084;2022-08-19T03:34:19;6.25;;;2.40;;
42096;SDS011;27754;45.414;11.084;2022-08-19T03:36:56;11.00;;;2.85;;
42096;SDS011;27754;45.414;11.084;2022-08-19T03:39:25;12.07;;;2.95;;
42096;SDS011;27754;45.414;11.084;2022-08-19T03:41:54;7.38;;;2.80;;
42096;SDS011;27754;45.414;11.084;2022-08-19T03:44:48;6.25;;;2.20;;
42096;SDS011;27754;45.414;11.084;2022-08-19T03:47:15;7.88;;;2.70;;
42096;SDS011;27754;45.414;11.084;2022-08-19T03:49:43;7.55;;;2.33;;
42096;SDS011;27754;45.414;11.084;2022-08-19T03:52:11;9.43;;;3.17;;
42096;SDS011;27754;45.414;11.084;2022-08-19T03:54:38;7.20;;;2.30;;
42096;SDS011;27754;45.414;11.084;2022-08-19T03:57:06;10.55;;;2.85;;
42096;SDS011;27754;45.414;11.084;2022-08-19T03:59:33;8.52;;;2.55;;
42096;SDS011;27754;45.414;11.084;2022-08-19T04:02:03;7.38;;;2.35;;
42096;SDS011;27754;45.414;11.084;2022-08-19T04:04:36;6.43;;;2.67;;
42096;SDS011;27754;45.414;11.084;2022-08-19T04:07:05;13.90;;;3.03;;
42096;SDS011;27754;45.414;11.084;2022-08-19T04:09:33;7.47;;;2.55;;
42096;SDS011;27754;45.414;11.084;2022-08-19T04:12:00;6.65;;;2.63;;
42096;SDS011;27754;45.414;11.084;2022-08-19T04:14:29;7.68;;;2.00;;
42096;SDS011;27754;45.414;11.084;2022-08-19T04:16:57;9.15;;;2.38;;
42096;SDS011;27754;45.414;11.084;2022-08-19T04:19:28;5.78;;;2.60;;
42096;SDS011;27754;45.414;11.084;2022-08-19T04:21:56;7.88;;;2.53;;
42096;SDS011;27754;45.414;11.084;2022-08-19T04:24:24;8.23;;;2.63;;
42096;SDS011;27754;45.414;11.084;2022-08-19T04:26:51;8.70;;;2.60;;
42096;SDS011;27754;45.414;11.084;2022-08-19T04:29:20;10.52;;;2.85;;
42096;SDS011;27754;45.414;11.084;2022-08-19T04:31:52;7.15;;;3.03;;
42096;SDS011;27754;45.414;11.084;2022-08-19T04:34:20;8.82;;;3.08;;
42096;SDS011;27754;45.414;11.084;2022-08-19T04:36:51;12.90;;;3.17;;
42096;SDS011;27754;45.414;11.084;2022-08-19T04:39:20;8.05;;;4.35;;
42096;SDS011;27754;45.414;11.084;2022-08-19T04:41:48;8.75;;;4.45;;
42096;SDS011;27754;45.414;11.084;2022-08-19T04:47:11;10.02;;;3.95;;
42096;SDS011;27754;45.414;11.084;2022-08-19T04:49:38;10.05;;;3.65;;
42096;SDS011;27754;45.414;11.084;2022-08-19T04:52:05;12.98;;;3.83;;
42096;SDS011;27754;45.414;11.084;2022-08-19T04:54:32;9.75;;;4.13;;
42096;SDS011;27754;45.414;11.084;2022-08-19T04:57:05;11.55;;;4.70;;
42096;SDS011;27754;45.414;11.084;2022-08-19T04:59:36;8.23;;;3.90;;
42096;SDS011;27754;45.414;11.084;2022-08-19T05:02:03;10.48;;;4.13;;
42096;SDS011;27754;45.414;11.084;2022-08-19T05:04:31;9.98;;;3.35;;
42096;SDS011;27754;45.414;11.084;2022-08-19T05:06:59;9.57;;;3.45;;
42096;SDS011;27754;45.414;11.084;2022-08-19T05:09:29;10.75;;;3.28;;
42096;SDS011;27754;45.414;11.084;2022-08-19T05:12:16;10.75;;;3.20;;
42096;SDS011;27754;45.414;11.084;2022-08-19T05:14:44;10.27;;;3.17;;
42096;SDS011;27754;45.414;11.084;2022-08-19T05:17:13;9.57;;;3.08;;
42096;SDS011;27754;45.414;11.084;2022-08-19T05:20:02;9.60;;;3.72;;
42096;SDS011;27754;45.414;11.084;2022-08-19T05:22:49;9.98;;;3.65;;
42096;SDS011;27754;45.414;11.084;2022-08-19T05:25:17;13.85;;;4.18;;
42096;SDS011;27754;45.414;11.084;2022-08-19T05:27:46;8.80;;;3.30;;
42096;SDS011;27754;45.414;11.084;2022-08-19T05:30:13;11.13;;;3.35;;
42096;SDS011;27754;45.414;11.084;2022-08-19T05:32:41;8.40;;;3.28;;
42096;SDS011;27754;45.414;11.084;2022-08-19T05:35:09;9.57;;;3.08;;
42096;SDS011;27754;45.414;11.084;2022-08-19T05:37:36;6.70;;;2.53;;
42096;SDS011;27754;45.414;11.084;2022-08-19T05:40:06;8.45;;;3.10;;
42096;SDS011;27754;45.414;11.084;2022-08-19T05:42:34;6.60;;;3.00;;
42096;SDS011;27754;45.414;11.084;2022-08-19T05:45:02;8.85;;;3.05;;
42096;SDS011;27754;45.414;11.084;2022-08-19T05:47:30;13.38;;;2.92;;
42096;SDS011;27754;45.414;11.084;2022-08-19T05:49:58;9.90;;;3.30;;
42096;SDS011;27754;45.414;11.084;2022-08-19T05:52:25;9.88;;;3.10;;
42096;SDS011;27754;45.414;11.084;2022-08-19T05:54:53;9.32;;;3.53;;
42096;SDS011;27754;45.414;11.084;2022-08-19T05:57:23;7.57;;;2.83;;
42096;SDS011;27754;45.414;11.084;2022-08-19T05:59:51;8.40;;;3.10;;
42096;SDS011;27754;45.414;11.084;2022-08-19T06:02:27;5.32;;;2.80;;
42096;SDS011;27754;45.414;11.084;2022-08-19T06:04:57;6.43;;;2.75;;
42096;SDS011;27754;45.414;11.084;2022-08-19T06:07:24;7.47;;;2.88;;
42096;SDS011;27754;45.414;11.084;2022-08-19T06:09:51;8.32;;;3.33;;
42096;SDS011;27754;45.414;11.084;2022-08-19T06:15:04;7.30;;;2.80;;
42096;SDS011;27754;45.414;11.084;2022-08-19T06:17:33;9.25;;;3.47;;
42096;SDS011;27754;45.414;11.084;2022-08-19T06:20:05;9.18;;;3.28;;
42096;SDS011;27754;45.414;11.084;2022-08-19T06:22:38;7.47;;;3.28;;
42096;SDS011;27754;45.414;11.084;2022-08-19T06:25:06;9.98;;;3.63;;
42096;SDS011;27754;45.414;11.084;2022-08-19T06:27:35;9.30;;;3.20;;
42096;SDS011;27754;45.414;11.084;2022-08-19T06:30:13;9.93;;;4.15;;
42096;SDS011;27754;45.414;11.084;2022-08-19T06:32:41;9.70;;;4.18;;
42096;SDS011;27754;45.414;11.084;2022-08-19T06:35:08;11.75;;;5.05;;
42096;SDS011;27754;45.414;11.084;2022-08-19T06:37:36;9.20;;;4.65;;
42096;SDS011;27754;45.414;11.084;2022-08-19T06:40:08;10.52;;;5.57;;
42096;SDS011;27754;45.414;11.084;2022-08-19T06:42:37;8.32;;;4.68;;
42096;SDS011;27754;45.414;11.084;2022-08-19T06:45:10;8.85;;;4.40;;
42096;SDS011;27754;45.414;11.084;2022-08-19T06:47:37;10.55;;;5.30;;
42096;SDS011;27754;45.414;11.084;2022-08-19T06:50:04;12.57;;;5.85;;
42096;SDS011;27754;45.414;11.084;2022-08-19T06:52:34;16.67;;;6.00;;
42096;SDS011;27754;45.414;11.084;2022-08-19T06:55:03;11.82;;;4.70;;
42096;SDS011;27754;45.414;11.084;2022-08-19T06:57:32;12.07;;;5.03;;
42096;SDS011;27754;45.414;11.084;2022-08-19T07:00:00;10.48;;;5.15;;
42096;SDS011;27754;45.414;11.084;2022-08-19T07:02:27;12.75;;;5.18;;
42096;SDS011;27754;45.414;11.084;2022-08-19T07:04:54;10.68;;;5.30;;
42096;SDS011;27754;45.414;11.084;2022-08-19T07:07:24;10.80;;;4.75;;
42096;SDS011;27754;45.414;11.084;2022-08-19T07:09:51;10.07;;;4.80;;
42096;SDS011;27754;45.414;11.084;2022-08-19T07:12:30;14.30;;;5.93;;
42096;SDS011;27754;45.414;11.084;2022-08-19T07:15:02;12.07;;;5.95;;
42096;SDS011;27754;45.414;11.084;2022-08-19T07:17:30;15.23;;;5.72;;
42096;SDS011;27754;45.414;11.084;2022-08-19T07:20:00;11.30;;;4.90;;
42096;SDS011;27754;45.414;11.084;2022-08-19T07:22:34;12.38;;;5.20;;
42096;SDS011;27754;45.414;11.084;2022-08-19T07:25:01;11.15;;;5.32;;
42096;SDS011;27754;45.414;11.084;2022-08-19T07:27:30;9.02;;;4.88;;
42096;SDS011;27754;45.414;11.084;2022-08-19T07:29:59;13.90;;;5.20;;
42096;SDS011;27754;45.414;11.084;2022-08-19T07:32:26;11.00;;;5.55;;
42096;SDS011;27754;45.414;11.084;2022-08-19T07:34:54;14.35;;;5.25;;
42096;SDS011;27754;45.414;11.084;2022-08-19T07:37:22;12.40;;;6.20;;
42096;SDS011;27754;45.414;11.084;2022-08-19T07:39:51;15.50;;;5.90;;
42096;SDS011;27754;45.414;11.084;2022-08-19T07:42:18;11.38;;;5.80;;
42096;SDS011;27754;45.414;11.084;2022-08-19T07:44:47;11.32;;;6.05;;
42096;SDS011;27754;45.414;11.084;2022-08-19T07:47:16;15.10;;;6.70;;
42096;SDS011;27754;45.414;11.084;2022-08-19T07:50:06;12.25;;;6.55;;
42096;SDS011;27754;45.414;11.084;2022-08-19T07:52:35;13.27;;;6.28;;
42096;SDS011;27754;45.414;11.084;2022-08-19T07:55:07;14.75;;;6.82;;
42096;SDS011;27754;45.414;11.084;2022-08-19T07:57:55;14.80;;;7.47;;
42096;SDS011;27754;45.414;11.084;2022-08-19T08:00:22;15.02;;;7.53;;
42096;SDS011;27754;45.414;11.084;2022-08-19T08:02:50;14.93;;;7.82;;
42096;SDS011;27754;45.414;11.084;2022-08-19T08:05:21;13.85;;;7.93;;
42096;SDS011;27754;45.414;11.084;2022-08-19T08:08:10;14.40;;;6.80;;
42096;SDS011;27754;45.414;11.084;2022-08-19T08:10:57;14.90;;;8.65;;
42096;SDS011;27754;45.414;11.084;2022-08-19T08:13:25;14.38;;;8.68;;
42096;SDS011;27754;45.414;11.084;2022-08-19T08:15:53;17.05;;;9.75;;
42096;SDS011;27754;45.414;11.084;2022-08-19T08:18:22;16.10;;;9.73;;
42096;SDS011;27754;45.414;11.084;2022-08-19T08:20:56;14.93;;;9.30;;
42096;SDS011;27754;45.414;11.084;2022-08-19T08:23:24;16.85;;;10.38;;
42096;SDS011;27754;45.414;11.084;2022-08-19T08:25:53;16.90;;;9.63;;
42096;SDS011;27754;45.414;11.084;2022-08-19T08:28:23;18.08;;;9.82;;
42096;SDS011;27754;45.414;11.084;2022-08-19T08:30:54;13.35;;;8.55;;
42096;SDS011;27754;45.414;11.084;2022-08-19T08:33:23;16.67;;;8.43;;
42096;SDS011;27754;45.414;11.084;2022-08-19T08:36:00;15.80;;;10.18;;
42096;SDS011;27754;45.414;11.084;2022-08-19T08:38:34;16.23;;;10.77;;
42096;SDS011;27754;45.414;11.084;2022-08-19T08:41:12;17.92;;;10.63;;
42096;SDS011;27754;45.414;11.084;2022-08-19T08:43:54;21.27;;;11.25;;
42096;SDS011;27754;45.414;11.084;2022-08-19T08:46:57;23.85;;;10.75;;
42096;SDS011;27754;45.414;11.084;2022-08-19T08:49:29;18.70;;;10.20;;
42096;SDS011;27754;45.414;11.084;2022-08-19T08:52:24;18.45;;;9.85;;
42096;SDS011;27754;45.414;11.084;2022-08-19T08:54:59;19.42;;;10.80;;
42096;SDS011;27754;45.414;11.084;2022-08-19T09:00:21;12.02;;;8.38;;
42096;SDS011;27754;45.414;11.084;2022-08-19T09:02:55;14.27;;;7.25;;
42096;SDS011;27754;45.414;11.084;2022-08-19T09:05:30;14.95;;;7.60;;
42096;SDS011;27754;45.414;11.084;2022-08-19T09:08:18;15.57;;;7.53;;
42096;SDS011;27754;45.414;11.084;2022-08-19T09:10:56;11.88;;;6.45;;
42096;SDS011;27754;45.414;11.084;2022-08-19T09:16:00;10.98;;;6.45;;
42096;SDS011;27754;45.414;11.084;2022-08-19T09:18:43;10.75;;;6.65;;
42096;SDS011;27754;45.414;11.084;2022-08-19T09:21:14;10.20;;;6.53;;
42096;SDS011;27754;45.414;11.084;2022-08-19T09:23:42;10.43;;;5.82;;
42096;SDS011;27754;45.414;11.084;2022-08-19T09:26:11;9.40;;;6.00;;
42096;SDS011;27754;45.414;11.084;2022-08-19T09:28:42;9.77;;;5.65;;
42096;SDS011;27754;45.414;11.084;2022-08-19T09:31:16;10.93;;;5.57;;
42096;SDS011;27754;45.414;11.084;2022-08-19T09:33:45;9.05;;;4.45;;
42096;SDS011;27754;45.414;11.084;2022-08-19T09:36:13;8.15;;;4.88;;
42096;SDS011;27754;45.414;11.084;2022-08-19T09:38:59;13.98;;;5.28;;
42096;SDS011;27754;45.414;11.084;2022-08-19T09:41:27;12.20;;;4.53;;
42096;SDS011;27754;45.414;11.084;2022-08-19T09:43:55;9.27;;;4.93;;
42096;SDS011;27754;45.414;11.084;2022-08-19T09:46:25;9.27;;;4.65;;
42096;SDS011;27754;45.414;11.084;2022-08-19T09:48:56;8.80;;;4.30;;
42096;SDS011;27754;45.414;11.084;2022-08-19T09:51:32;11.30;;;5.07;;
42096;SDS011;27754;45.414;11.084;2022-08-19T09:54:01;7.72;;;4.10;;
42096;SDS011;27754;45.414;11.084;2022-08-19T09:56:30;7.57;;;4.30;;
42096;SDS011;27754;45.414;11.084;2022-08-19T09:58:59;8.77;;;5.38;;
42096;SDS011;27754;45.414;11.084;2022-08-19T10:01:28;7.68;;;4.53;;
42096;SDS011;27754;45.414;11.084;2022-08-19T10:03:57;7.78;;;5.00;;
42096;SDS011;27754;45.414;11.084;2022-08-19T10:06:26;10.23;;;4.75;;
42096;SDS011;27754;45.414;11.084;2022-08-19T10:09:12;10.23;;;4.40;;
42096;SDS011;27754;45.414;11.084;2022-08-19T10:11:40;8.38;;;4.80;;
42096;SDS011;27754;45.414;11.084;2022-08-19T10:14:19;8.00;;;4.63;;
42096;SDS011;27754;45.414;11.084;2022-08-19T10:16:48;7.40;;;4.90;;
42096;SDS011;27754;45.414;11.084;2022-08-19T10:19:16;7.90;;;4.45;;
42096;SDS011;27754;45.414;11.084;2022-08-19T10:21:52;9.55;;;5.05;;
42096;SDS011;27754;45.414;11.084;2022-08-19T10:24:21;6.55;;;4.40;;
42096;SDS011;27754;45.414;11.084;2022-08-19T10:26:50;8.75;;;4.32;;
42096;SDS011;27754;45.414;11.084;2022-08-19T10:29:24;6.05;;;3.70;;
42096;SDS011;27754;45.414;11.084;2022-08-19T10:32:02;6.57;;;3.63;;
42096;SDS011;27754;45.414;11.084;2022-08-19T10:34:38;6.78;;;4.00;;
42096;SDS011;27754;45.414;11.084;2022-08-19T10:37:15;9.68;;;3.85;;
42096;SDS011;27754;45.414;11.084;2022-08-19T10:39:56;9.07;;;4.28;;
42096;SDS011;27754;45.414;11.084;2022-08-19T10:42:23;8.50;;;4.25;;
42096;SDS011;27754;45.414;11.084;2022-08-19T10:44:50;5.90;;;3.80;;
42096;SDS011;27754;45.414;11.084;2022-08-19T10:47:17;6.90;;;3.88;;
42096;SDS011;27754;45.414;11.084;2022-08-19T10:49:54;7.50;;;3.70;;
42096;SDS011;27754;45.414;11.084;2022-08-19T10:52:41;6.60;;;3.55;;
42096;SDS011;27754;45.414;11.084;2022-08-19T10:55:21;8.98;;;3.60;;
42096;SDS011;27754;45.414;11.084;2022-08-19T10:58:18;7.25;;;4.05;;
42096;SDS011;27754;45.414;11.084;2022-08-19T11:00:53;6.22;;;3.45;;
42096;SDS011;27754;45.414;11.084;2022-08-19T11:03:25;7.50;;;3.55;;
42096;SDS011;27754;45.414;11.084;2022-08-19T11:05:58;7.65;;;3.63;;
42096;SDS011;27754;45.414;11.084;2022-08-19T11:08:26;10.02;;;4.50;;
42096;SDS011;27754;45.414;11.084;2022-08-19T11:10:53;6.68;;;4.15;;
42096;SDS011;27754;45.414;11.084;2022-08-19T11:13:27;7.20;;;3.83;;
42096;SDS011;27754;45.414;11.084;2022-08-19T11:15:58;9.10;;;4.03;;
42096;SDS011;27754;45.414;11.084;2022-08-19T11:18:44;5.75;;;3.50;;
42096;SDS011;27754;45.414;11.084;2022-08-19T11:21:21;8.23;;;4.43;;
42096;SDS011;27754;45.414;11.084;2022-08-19T11:23:53;7.47;;;3.75;;
42096;SDS011;27754;45.414;11.084;2022-08-19T11:26:22;6.35;;;4.07;;
42096;SDS011;27754;45.414;11.084;2022-08-19T11:28:50;7.00;;;3.60;;
42096;SDS011;27754;45.414;11.084;2022-08-19T11:31:21;6.60;;;4.00;;
42096;SDS011;27754;45.414;11.084;2022-08-19T11:33:55;13.23;;;5.38;;
42096;SDS011;27754;45.414;11.084;2022-08-19T11:36:29;7.80;;;4.95;;
42096;SDS011;27754;45.414;11.084;2022-08-19T11:38:58;7.35;;;4.30;;
42096;SDS011;27754;45.414;11.084;2022-08-19T11:41:26;9.80;;;5.03;;
42096;SDS011;27754;45.414;11.084;2022-08-19T11:43:53;7.60;;;5.38;;
42096;SDS011;27754;45.414;11.084;2022-08-19T11:46:23;9.35;;;4.85;;
42096;SDS011;27754;45.414;11.084;2022-08-19T11:48:51;5.70;;;3.58;;
42096;SDS011;27754;45.414;11.084;2022-08-19T11:51:19;8.02;;;4.82;;
42096;SDS011;27754;45.414;11.084;2022-08-19T11:53:48;6.80;;;4.40;;
42096;SDS011;27754;45.414;11.084;2022-08-19T11:56:17;7.25;;;4.55;;
42096;SDS011;27754;45.414;11.084;2022-08-19T11:58:45;8.68;;;4.75;;
42096;SDS011;27754;45.414;11.084;2022-08-19T12:01:13;9.48;;;5.57;;
42096;SDS011;27754;45.414;11.084;2022-08-19T12:03:43;7.95;;;5.85;;
42096;SDS011;27754;45.414;11.084;2022-08-19T12:06:13;11.48;;;5.53;;
42096;SDS011;27754;45.414;11.084;2022-08-19T12:08:43;7.63;;;6.07;;
42096;SDS011;27754;45.414;11.084;2022-08-19T12:11:11;8.20;;;6.32;;
42096;SDS011;27754;45.414;11.084;2022-08-19T12:13:39;7.32;;;6.15;;
42096;SDS011;27754;45.414;11.084;2022-08-19T12:16:09;7.85;;;6.93;;
42096;SDS011;27754;45.414;11.084;2022-08-19T12:18:49;11.45;;;7.13;;
42096;SDS011;27754;45.414;11.084;2022-08-19T12:21:18;10.70;;;7.05;;
42096;SDS011;27754;45.414;11.084;2022-08-19T12:23:49;12.98;;;7.35;;
42096;SDS011;27754;45.414;11.084;2022-08-19T12:26:21;8.43;;;6.80;;
42096;SDS011;27754;45.414;11.084;2022-08-19T12:28:48;8.65;;;7.43;;
42096;SDS011;27754;45.414;11.084;2022-08-19T12:31:16;8.35;;;7.03;;
42096;SDS011;27754;45.414;11.084;2022-08-19T12:33:44;8.00;;;6.45;;
42096;SDS011;27754;45.414;11.084;2022-08-19T12:36:12;10.80;;;7.63;;
42096;SDS011;27754;45.414;11.084;2022-08-19T12:38:40;9.40;;;7.38;;
42096;SDS011;27754;45.414;11.084;2022-08-19T12:41:09;10.48;;;7.43;;
42096;SDS011;27754;45.414;11.084;2022-08-19T12:43:38;12.70;;;9.13;;
42096;SDS011;27754;45.414;11.084;2022-08-19T12:46:05;8.40;;;7.00;;
42096;SDS011;27754;45.414;11.084;2022-08-19T12:48:36;8.63;;;6.70;;
42096;SDS011;27754;45.414;11.084;2022-08-19T12:51:06;7.97;;;6.80;;
42096;SDS011;27754;45.414;11.084;2022-08-19T12:53:36;8.90;;;6.85;;
42096;SDS011;27754;45.414;11.084;2022-08-19T12:56:04;9.07;;;6.97;;
42096;SDS011;27754;45.414;11.084;2022-08-19T12:58:36;9.63;;;6.15;;
42096;SDS011;27754;45.414;11.084;2022-08-19T13:01:15;11.20;;;5.70;;
42096;SDS011;27754;45.414;11.084;2022-08-19T13:03:47;6.00;;;4.75;;
42096;SDS011;27754;45.414;11.084;2022-08-19T13:06:16;6.50;;;4.43;;
42096;SDS011;27754;45.414;11.084;2022-08-19T13:08:45;7.55;;;5.20;;
42096;SDS011;27754;45.414;11.084;2022-08-19T13:11:14;8.65;;;4.95;;
42096;SDS011;27754;45.414;11.084;2022-08-19T13:13:44;6.43;;;4.60;;
42096;SDS011;27754;45.414;11.084;2022-08-19T13:16:14;6.82;;;4.20;;
42096;SDS011;27754;45.414;11.084;2022-08-19T13:18:42;7.18;;;4.38;;
42096;SDS011;27754;45.414;11.084;2022-08-19T13:21:10;7.07;;;4.65;;
42096;SDS011;27754;45.414;11.084;2022-08-19T13:23:41;4.47;;;3.88;;
42096;SDS011;27754;45.414;11.084;2022-08-19T13:26:08;7.03;;;4.40;;
42096;SDS011;27754;45.414;11.084;2022-08-19T13:28:36;7.72;;;4.47;;
42096;SDS011;27754;45.414;11.084;2022-08-19T13:31:23;7.53;;;5.25;;
42096;SDS011;27754;45.414;11.084;2022-08-19T13:34:09;8.60;;;5.75;;
42096;SDS011;27754;45.414;11.084;2022-08-19T13:36:37;7.00;;;4.50;;
42096;SDS011;27754;45.414;11.084;2022-08-19T13:39:05;7.20;;;4.63;;
42096;SDS011;27754;45.414;11.084;2022-08-19T13:41:34;8.75;;;3.50;;
42096;SDS011;27754;45.414;11.084;2022-08-19T13:44:02;8.15;;;4.05;;
42096;SDS011;27754;45.414;11.084;2022-08-19T13:46:30;5.20;;;3.45;;
42096;SDS011;27754;45.414;11.084;2022-08-19T13:48:57;6.20;;;3.42;;
42096;SDS011;27754;45.414;11.084;2022-08-19T13:51:24;8.02;;;3.42;;
42096;SDS011;27754;45.414;11.084;2022-08-19T13:53:51;4.65;;;3.38;;
42096;SDS011;27754;45.414;11.084;2022-08-19T13:56:18;5.40;;;3.42;;
42096;SDS011;27754;45.414;11.084;2022-08-19T13:58:51;5.10;;;2.60;;
42096;SDS011;27754;45.414;11.084;2022-08-19T14:01:22;5.60;;;3.03;;
42096;SDS011;27754;45.414;11.084;2022-08-19T14:03:50;5.15;;;2.78;;
42096;SDS011;27754;45.414;11.084;2022-08-19T14:06:17;7.15;;;3.25;;
42096;SDS011;27754;45.414;11.084;2022-08-19T14:08:45;4.32;;;2.60;;
42096;SDS011;27754;45.414;11.084;2022-08-19T14:11:12;3.90;;;2.33;;
42096;SDS011;27754;45.414;11.084;2022-08-19T14:13:40;4.40;;;2.25;;
42096;SDS011;27754;45.414;11.084;2022-08-19T14:16:08;4.75;;;2.05;;
42096;SDS011;27754;45.414;11.084;2022-08-19T14:18:36;3.20;;;2.00;;
42096;SDS011;27754;45.414;11.084;2022-08-19T14:21:03;4.38;;;2.42;;
42096;SDS011;27754;45.414;11.084;2022-08-19T14:23:31;4.15;;;3.05;;
42096;SDS011;27754;45.414;11.084;2022-08-19T14:26:06;6.20;;;2.83;;
42096;SDS011;27754;45.414;11.084;2022-08-19T14:28:35;5.13;;;3.00;;
42096;SDS011;27754;45.414;11.084;2022-08-19T14:31:02;4.70;;;2.75;;
42096;SDS011;27754;45.414;11.084;2022-08-19T14:33:29;6.10;;;3.13;;
42096;SDS011;27754;45.414;11.084;2022-08-19T14:35:56;6.43;;;3.85;;
42096;SDS011;27754;45.414;11.084;2022-08-19T14:38:25;6.15;;;3.55;;
42096;SDS011;27754;45.414;11.084;2022-08-19T14:41:07;10.98;;;3.58;;
42096;SDS011;27754;45.414;11.084;2022-08-19T14:43:36;6.95;;;4.45;;
42096;SDS011;27754;45.414;11.084;2022-08-19T14:46:03;6.53;;;4.65;;
42096;SDS011;27754;45.414;11.084;2022-08-19T14:48:31;8.98;;;4.60;;
42096;SDS011;27754;45.414;11.084;2022-08-19T14:50:58;6.05;;;3.42;;
42096;SDS011;27754;45.414;11.084;2022-08-19T14:53:25;7.22;;;3.05;;
42096;SDS011;27754;45.414;11.084;2022-08-19T14:55:52;7.55;;;3.60;;
42096;SDS011;27754;45.414;11.084;2022-08-19T14:58:19;6.05;;;4.00;;
42096;SDS011;27754;45.414;11.084;2022-08-19T15:00:56;5.78;;;3.35;;